New Orleans, Louisiana
Traffic Map
Current Weather Conditions
New Orleans, Louisiana
Overcast
Overcast
79°
Feels Like: 82°
Wind Chill: 79° Ceiling: 2000
Heat Index: 82° Visibility: 8mi
Dew Point: 74° Wind: 17mph
Humidity: 84% Direction: 160° (SSE)
Pressure: 29.84in Gusts: 0mph
Raw Report DataKNEW 281211Z 16015KT 8SM SCT016 BKN020 OVC037 26/23 A2984 RMK AO2 T02610233
Traffic Incident Summary
Active as of:
Severity:
Category:
InformationThere was an issue retrieving the traffic information for this location. Please try a different location or try again shortly.
Advertisements
Track Severe Weather on mobile